Time;durP1;ratioP1;P1;durP2;ratioP2;P2;SDS_P1;SDS_P2;PMS_P1;PMS_P2;Temp;Humidity;BMP_temperature;BMP_pressure;BME280_temperature;BME280_humidity;BME280_pressure;Samples;Min_cycle;Max_cycle;Signal;HPM_P1;HPM_P2
2023/12/27 00:01:17;;;;;;;1.65;1.00;;;;;;;9.32;100.00;100843.66;6211812;23;20023;-87
2023/12/27 00:03:46;;;;;;;2.10;0.95;;;;;;;9.29;100.00;100838.41;6210809;23;20025;-86
2023/12/27 00:06:15;;;;;;;4.90;1.05;;;;;;;9.27;100.00;100825.44;6211839;23;20356;-87
2023/12/27 00:08:44;;;;;;;2.33;1.02;;;;;;;9.18;100.00;100815.66;6211519;23;20020;-87
2023/12/27 00:11:19;;;;;;;1.98;1.05;;;;;;;9.07;100.00;100801.50;6212180;23;20023;-85
2023/12/27 00:13:48;;;;;;;1.50;0.90;;;;;;;9.15;100.00;100806.94;6211136;23;20017;-85
2023/12/27 00:16:21;;;;;;;1.75;1.10;;;;;;;9.17;100.00;100810.44;6213053;23;20017;-84
2023/12/27 00:18:59;;;;;;;2.50;0.98;;;;;;;9.19;100.00;100807.09;6211641;23;20017;-85
2023/12/27 00:21:28;;;;;;;1.85;0.90;;;;;;;9.19;100.00;100808.81;6209601;23;20067;-84
2023/12/27 00:23:57;;;;;;;1.30;0.95;;;;;;;9.16;100.00;100811.25;6212595;23;20453;-85
2023/12/27 00:26:26;;;;;;;0.90;0.73;;;;;;;9.18;100.00;100810.47;6210761;23;20070;-83
2023/12/27 00:28:58;;;;;;;1.65;0.63;;;;;;;9.23;100.00;100808.06;6212184;23;20021;-84
2023/12/27 00:31:29;;;;;;;1.15;0.70;;;;;;;9.23;100.00;100802.91;6211072;23;20020;-85
2023/12/27 00:33:57;;;;;;;1.63;0.80;;;;;;;9.21;100.00;100789.09;6211375;23;20456;-85
2023/12/27 00:36:29;;;;;;;1.20;0.85;;;;;;;9.19;100.00;100808.81;6211338;23;20021;-84
2023/12/27 00:39:02;;;;;;;0.82;0.70;;;;;;;9.10;100.00;100816.22;6211493;23;20016;-86
2023/12/27 00:41:31;;;;;;;1.35;0.93;;;;;;;9.08;100.00;100802.38;6211928;23;20029;-84
2023/12/27 00:44:00;;;;;;;4.18;1.05;;;;;;;9.06;100.00;100799.72;6212000;23;20016;-85
2023/12/27 00:46:40;;;;;;;1.35;0.82;;;;;;;9.14;100.00;100800.91;6211789;23;20448;-85
2023/12/27 00:49:08;;;;;;;1.35;0.75;;;;;;;9.17;100.00;100797.53;6212879;23;20028;-85
2023/12/27 00:51:38;;;;;;;1.35;0.90;;;;;;;9.16;100.00;100788.03;6217464;23;20028;-85
2023/12/27 00:54:07;;;;;;;1.88;0.98;;;;;;;9.25;100.00;100793.50;6213168;23;20092;-83
2023/12/27 00:56:37;;;;;;;1.25;1.02;;;;;;;9.23;100.00;100778.00;6214559;23;20059;-84
2023/12/27 00:59:08;;;;;;;3.78;1.67;;;;;;;9.29;100.00;100771.28;6211752;23;20480;-85
2023/12/27 01:01:40;;;;;;;2.97;0.98;;;;;;;9.29;100.00;100766.97;6213629;23;20017;-87
2023/12/27 01:04:09;;;;;;;1.20;0.80;;;;;;;9.30;100.00;100768.75;6212427;23;20024;-84
2023/12/27 01:06:50;;;;;;;1.58;0.95;;;;;;;9.30;100.00;100758.44;6213994;23;20099;-85
2023/12/27 01:09:19;;;;;;;0.90;0.55;;;;;;;9.31;100.00;100754.13;6215887;23;20405;-85
2023/12/27 01:11:48;;;;;;;1.25;0.77;;;;;;;9.27;100.00;100758.31;6216370;23;20020;-85
2023/12/27 01:14:20;;;;;;;0.50;0.50;;;;;;;9.28;100.00;100765.25;6214796;23;20087;-84
2023/12/27 01:16:51;;;;;;;3.67;0.90;;;;;;;9.26;100.00;100759.16;6212397;23;20044;-86
2023/12/27 01:19:24;;;;;;;1.13;0.73;;;;;;;9.29;100.00;100759.22;6214634;23;20456;-84
2023/12/27 01:21:54;;;;;;;3.88;1.00;;;;;;;9.26;100.00;100759.16;6214057;23;20449;-84
2023/12/27 01:24:28;;;;;;;3.10;0.90;;;;;;;9.28;100.00;100760.06;6214018;23;20468;-84
2023/12/27 01:26:57;;;;;;;1.58;0.73;;;;;;;9.32;100.00;100781.69;6215066;23;20044;-85
2023/12/27 01:29:26;;;;;;;0.93;0.70;;;;;;;9.29;100.00;100771.28;6217363;23;20024;-84
2023/12/27 01:31:56;;;;;;;1.58;0.90;;;;;;;9.25;100.00;100772.00;6214163;23;20070;-83
2023/12/27 01:34:34;;;;;;;2.50;0.88;;;;;;;9.29;100.00;100764.41;6212178;23;20023;-84
2023/12/27 01:37:03;;;;;;;1.40;0.80;;;;;;;9.24;100.00;100776.28;6213096;23;20071;-84
2023/12/27 01:39:32;;;;;;;1.20;0.73;;;;;;;9.19;100.00;100763.22;6213608;23;20024;-83
2023/12/27 01:42:07;;;;;;;1.77;1.15;;;;;;;9.19;100.00;100749.44;6214278;23;20066;-85
2023/12/27 01:44:36;;;;;;;1.58;0.80;;;;;;;9.19;100.00;100744.25;6212408;23;20016;-85
2023/12/27 01:47:08;;;;;;;1.65;1.10;;;;;;;9.16;100.00;100749.31;6212499;23;20083;-84
2023/12/27 01:49:37;;;;;;;1.88;1.00;;;;;;;9.05;100.00;100741.19;6212755;23;20017;-85
2023/12/27 01:52:11;;;;;;;2.60;1.27;;;;;;;9.08;100.00;100735.28;6213655;23;20104;-86
2023/12/27 01:54:41;;;;;;;1.95;1.05;;;;;;;9.11;100.00;100735.38;6211697;23;20013;-85
2023/12/27 01:57:10;;;;;;;1.95;1.02;;;;;;;9.12;100.00;100722.53;6213068;23;20024;-85
2023/12/27 01:59:39;;;;;;;1.80;1.00;;;;;;;9.16;100.00;100720.91;6212474;23;20020;-84
2023/12/27 02:02:14;;;;;;;1.38;0.95;;;;;;;9.15;100.00;100717.44;6213067;23;20117;-83
2023/12/27 02:04:43;;;;;;;1.77;0.98;;;;;;;9.15;100.00;100711.41;6216078;23;20020;-84
2023/12/27 02:07:13;;;;;;;2.03;1.05;;;;;;;9.18;100.00;100719.25;6212895;23;20024;-86
2023/12/27 02:09:43;;;;;;;2.35;1.02;;;;;;;9.14;100.00;100715.72;6213575;23;20020;-83
2023/12/27 02:12:26;;;;;;;1.58;0.90;;;;;;;9.11;100.00;100712.13;6209901;23;20092;-86
2023/12/27 02:27:46;;;;;;;1.35;0.93;;;;;;;9.12;100.00;100658.00;6214003;23;20453;-87
2023/12/27 02:30:20;;;;;;;2.97;0.88;;;;;;;9.14;100.00;100658.03;6214467;23;20020;-86
2023/12/27 02:32:51;;;;;;;2.92;1.10;;;;;;;9.14;100.00;100642.53;6213354;23;20463;-86
2023/12/27 02:35:23;;;;;;;1.60;0.50;;;;;;;9.17;100.00;100640.06;6214795;23;20020;-87
2023/12/27 02:37:55;;;;;;;1.83;1.17;;;;;;;9.15;100.00;100632.25;6213775;23;20017;-86
2023/12/27 02:40:25;;;;;;;2.20;1.20;;;;;;;9.17;100.00;100637.50;6213126;23;20075;-85
2023/12/27 02:43:10;;;;;;;1.50;0.90;;;;;;;9.17;100.00;100634.91;6216684;23;20605;-85
2023/12/27 02:45:50;;;;;;;3.03;1.20;;;;;;;9.20;99.62;100637.59;6206741;23;20024;-88
2023/12/27 02:48:19;;;;;;;1.80;0.90;;;;;;;9.17;100.00;100638.38;6213859;23;20023;-84
2023/12/27 02:50:48;;;;;;;1.25;0.80;;;;;;;9.02;100.00;100628.41;6210551;23;20106;-86
2023/12/27 02:53:21;;;;;;;2.80;0.82;;;;;;;8.98;100.00;100611.06;6212607;23;20067;-86
2023/12/27 02:55:57;;;;;;;1.27;0.93;;;;;;;8.97;100.00;100617.03;6211885;23;20023;-89
2023/12/27 02:58:35;;;;;;;1.42;0.90;;;;;;;8.91;100.00;100609.13;6211673;23;20031;-83
2023/12/27 03:01:04;;;;;;;1.52;0.93;;;;;;;8.92;100.00;100597.06;6211355;23;20043;-82
2023/12/27 03:03:40;;;;;;;1.40;0.68;;;;;;;8.91;100.00;100601.38;6213313;23;20051;-85
2023/12/27 03:06:12;;;;;;;2.17;1.20;;;;;;;8.85;100.00;100588.25;6213342;23;20028;-85
2023/12/27 03:08:40;;;;;;;1.52;1.00;;;;;;;8.92;100.00;100592.78;6210522;23;20021;-84
2023/12/27 03:11:12;;;;;;;1.45;0.95;;;;;;;8.94;100.00;100587.69;6212510;23;20023;-85
2023/12/27 03:13:44;;;;;;;3.17;1.08;;;;;;;8.90;100.00;100581.53;6212497;23;20460;-84
2023/12/27 03:16:13;;;;;;;1.17;0.88;;;;;;;8.92;100.00;100579.03;6212445;23;20017;-84
2023/12/27 03:18:42;;;;;;;1.10;0.52;;;;;;;8.96;100.00;100586.91;6209285;23;20092;-84
2023/12/27 03:21:11;;;;;;;0.95;0.55;;;;;;;8.97;100.00;100578.31;6213017;23;20040;-83
2023/12/27 03:23:43;;;;;;;1.10;0.63;;;;;;;9.01;100.00;100582.78;6212155;23;20013;-84
2023/12/27 03:26:12;;;;;;;1.00;0.70;;;;;;;9.05;100.00;100582.84;6212343;23;20079;-84
2023/12/27 03:28:44;;;;;;;2.55;0.60;;;;;;;9.04;100.00;100583.69;6213656;23;20025;-85
2023/12/27 03:31:22;;;;;;;1.45;0.90;;;;;;;9.02;100.00;100576.81;6211232;23;20071;-83
2023/12/27 03:33:51;;;;;;;1.08;0.77;;;;;;;9.01;100.00;100572.44;6211582;23;20020;-84
2023/12/27 03:36:20;;;;;;;1.95;0.82;;;;;;;9.06;100.00;100574.31;6211310;23;20016;-84
2023/12/27 03:38:49;;;;;;;1.75;0.80;;;;;;;9.11;100.00;100585.66;6212955;23;20043;-83
2023/12/27 03:41:22;;;;;;;1.20;0.70;;;;;;;9.13;98.92;100584.00;6212761;23;20020;-83
2023/12/27 03:43:58;;;;;;;2.15;1.00;;;;;;;9.18;100.00;100592.75;6212256;23;20016;-82
2023/12/27 03:46:27;;;;;;;1.27;0.75;;;;;;;9.17;100.00;100576.41;6213366;23;20016;-83
2023/12/27 03:48:57;;;;;;;1.40;0.88;;;;;;;9.16;100.00;100566.03;6211130;23;20540;-82
2023/12/27 03:51:38;;;;;;;1.85;0.90;;;;;;;9.15;99.44;100557.41;6213006;23;20028;-84
2023/12/27 03:54:07;;;;;;;1.63;0.90;;;;;;;9.22;97.76;100553.31;6210185;23;20020;-84
2023/12/27 03:56:36;;;;;;;1.17;0.70;;;;;;;9.26;96.81;100529.34;6216167;23;20028;-83
2023/12/27 04:01:46;;;;;;;2.00;0.73;;;;;;;9.30;95.61;100502.81;6212591;23;20020;-85
2023/12/27 04:04:15;;;;;;;1.98;0.70;;;;;;;9.35;97.51;100479.72;6211289;23;20012;-85
2023/12/27 04:06:48;;;;;;;1.55;1.00;;;;;;;9.27;96.30;100463.97;6211293;23;20043;-85
2023/12/27 04:09:20;;;;;;;2.65;0.82;;;;;;;9.18;97.61;100454.25;6211938;23;20025;-86
2023/12/27 04:11:49;;;;;;;1.30;0.90;;;;;;;9.13;97.80;100454.94;6210710;23;20008;-85
2023/12/27 04:14:33;;;;;;;0.95;0.60;;;;;;;9.12;98.45;100442.88;6212517;23;20067;-85
2023/12/27 04:17:09;;;;;;;1.45;0.77;;;;;;;9.01;97.94;100432.22;6211120;23;20052;-86
2023/12/27 04:19:38;;;;;;;1.92;0.85;;;;;;;8.98;98.27;100427.84;6210899;23;20046;-85
2023/12/27 04:22:11;;;;;;;1.85;0.77;;;;;;;8.94;97.69;100426.00;6212296;23;20124;-84
2023/12/27 04:24:44;;;;;;;1.83;0.77;;;;;;;8.83;98.39;100419.63;6210716;23;20031;-86
2023/12/27 05:00:51;;;;;;;1.75;0.90;;;;;;;8.56;97.35;100389.53;6212077;23;20024;-86
2023/12/27 05:03:22;;;;;;;3.08;0.98;;;;;;;8.58;99.91;100392.19;6210414;23;20035;-85
2023/12/27 05:05:53;;;;;;;2.00;0.75;;;;;;;8.59;97.59;100397.41;6210991;23;20023;-86
2023/12/27 05:08:22;;;;;;;2.33;0.82;;;;;;;8.64;98.51;100394.09;6212266;23;20017;-86
2023/12/27 05:10:52;;;;;;;1.05;0.73;;;;;;;8.67;99.65;100381.28;6212523;23;20016;-86
2023/12/27 05:58:12;;;;;;;1.10;0.80;;;;;;;8.81;92.81;100334.44;6217031;23;20285;-88
2023/12/27 06:03:16;;;;;;;0.85;0.70;;;;;;;8.86;92.85;100331.13;6213664;23;20024;-86
2023/12/27 06:05:49;;;;;;;0.68;0.50;;;;;;;8.92;95.28;100323.56;6211999;23;20095;-87
2023/12/27 06:08:29;;;;;;;0.60;0.50;;;;;;;8.94;96.04;100316.75;6214301;23;20051;-87
2023/12/27 06:24:00;;;;;;;2.85;1.00;;;;;;;9.17;90.63;100281.28;6193282;23;20021;-86
2023/12/27 06:36:51;;;;;;;0.98;0.50;;;;;;;9.19;86.83;100264.97;6213881;23;20024;-84
2023/12/27 06:39:25;;;;;;;1.58;0.40;;;;;;;9.17;93.00;100256.31;6212417;23;20013;-85
2023/12/27 06:41:54;;;;;;;1.60;0.75;;;;;;;9.19;87.49;100258.97;6211237;23;20092;-87
2023/12/27 06:44:27;;;;;;;1.77;0.75;;;;;;;9.15;88.41;100241.63;6212234;23;20023;-87
2023/12/27 06:46:56;;;;;;;2.20;0.55;;;;;;;9.17;89.11;100253.75;6212583;23;20065;-85
2023/12/27 06:49:25;;;;;;;0.75;0.52;;;;;;;9.15;87.94;100245.06;6212405;23;20448;-87
2023/12/27 06:51:54;;;;;;;0.88;0.50;;;;;;;9.15;86.79;100242.50;6212508;23;20020;-84
2023/12/27 06:54:28;;;;;;;1.20;0.88;;;;;;;9.10;91.28;100238.94;6212593;23;20019;-85
2023/12/27 06:56:59;;;;;;;3.92;0.80;;;;;;;9.11;91.66;100230.34;6211621;23;20123;-87
2023/12/27 06:59:28;;;;;;;0.85;0.50;;;;;;;9.11;90.93;100234.63;6215528;23;20023;-86
2023/12/27 07:01:57;;;;;;;0.85;0.57;;;;;;;9.09;88.52;100236.28;6213130;23;20021;-85
2023/12/27 07:04:37;;;;;;;1.10;0.63;;;;;;;9.10;88.29;100248.38;6211710;23;20017;-86
2023/12/27 07:07:06;;;;;;;0.40;0.40;;;;;;;9.06;88.93;100252.56;6211962;23;20024;-86
2023/12/27 07:09:38;;;;;;;1.92;0.95;;;;;;;9.07;86.80;100258.59;6212973;23;20068;-85
2023/12/27 07:12:14;;;;;;;0.70;0.47;;;;;;;9.05;87.86;100258.59;6211841;23;20071;-85
2023/12/27 07:14:44;;;;;;;2.28;0.88;;;;;;;9.06;89.02;100252.56;6211781;23;20017;-85
2023/12/27 07:17:15;;;;;;;1.00;0.60;;;;;;;9.02;86.19;100223.25;6211488;23;20032;-87
2023/12/27 07:19:51;;;;;;;0.77;0.47;;;;;;;9.09;88.77;100226.84;6212328;23;20526;-85
2023/12/27 07:22:21;;;;;;;0.93;0.50;;;;;;;9.10;83.88;100207.09;6212580;23;20020;-85
2023/12/27 07:24:52;;;;;;;1.30;0.55;;;;;;;9.10;86.25;100200.22;6212051;23;20012;-86
2023/12/27 07:27:22;;;;;;;0.52;0.30;;;;;;;9.11;89.90;100183.88;6211983;23;20020;-86
2023/12/27 07:29:56;;;;;;;0.90;0.65;;;;;;;9.05;89.03;100165.69;6212950;23;20021;-86
2023/12/27 07:32:25;;;;;;;0.77;0.60;;;;;;;9.08;86.28;100163.16;6211118;23;20027;-86
2023/12/27 07:34:57;;;;;;;2.28;0.70;;;;;;;9.11;86.55;100150.31;6212014;23;20016;-86
2023/12/27 08:54:34;;;;;;;0.82;0.50;;;;;;;9.26;82.66;100061.22;6211048;23;20453;-87
2023/12/27 08:57:03;;;;;;;0.40;0.40;;;;;;;9.26;81.01;100076.72;6210538;23;20071;-86
2023/12/27 08:59:37;;;;;;;1.23;0.50;;;;;;;9.25;81.26;100068.06;6211376;23;20020;-86
2023/12/27 09:02:09;;;;;;;0.57;0.40;;;;;;;9.27;82.25;100087.06;6210641;23;20021;-85
2023/12/27 09:04:38;;;;;;;1.50;0.60;;;;;;;9.28;82.32;100072.44;6212324;23;20020;-85
2023/12/27 09:07:08;;;;;;;0.70;0.32;;;;;;;9.30;81.84;100063.00;6213488;23;20250;-87
2023/12/27 09:09:42;;;;;;;1.08;0.40;;;;;;;9.30;81.99;100071.66;6213703;23;20016;-87
2023/12/27 09:12:13;;;;;;;0.52;0.47;;;;;;;9.34;82.23;100073.44;6213140;23;20174;-85
2023/12/27 09:14:45;;;;;;;0.98;0.60;;;;;;;9.34;82.49;100045.03;6213510;23;20023;-86
2023/12/27 09:19:52;;;;;;;1.23;0.50;;;;;;;9.37;79.46;100042.56;6218302;23;20337;-88
2023/12/27 09:22:23;;;;;;;1.45;0.60;;;;;;;9.39;80.38;100030.56;6213656;23;20100;-88
2023/12/27 09:25:12;;;;;;;0.90;0.35;;;;;;;9.37;82.14;100032.22;6213848;23;20016;-87
2023/12/27 09:27:45;;;;;;;1.52;0.52;;;;;;;9.37;84.29;100037.41;6216608;23;20402;-87
2023/12/27 09:30:20;;;;;;;0.57;0.35;;;;;;;9.36;80.28;100030.47;6214561;23;20043;-87
2023/12/27 09:32:49;;;;;;;1.05;0.70;;;;;;;9.37;79.91;100029.66;6211974;23;20095;-86
2023/12/27 09:35:19;;;;;;;1.00;0.57;;;;;;;9.38;79.13;100010.72;6213767;23;20017;-87
2023/12/27 09:37:48;;;;;;;0.77;0.50;;;;;;;9.36;80.22;100004.66;6212505;23;20020;-86
2023/12/27 09:40:29;;;;;;;4.63;0.52;;;;;;;9.36;79.46;100002.06;6212556;23;20024;-87
2023/12/27 09:42:59;;;;;;;2.15;0.45;;;;;;;9.31;78.85;99997.66;6212959;23;20024;-87
2023/12/27 09:45:36;;;;;;;0.85;0.52;;;;;;;9.38;85.77;99999.53;6211955;23;20016;-87
2023/12/27 10:06:23;;;;;;;0.63;0.45;;;;;;;9.44;78.03;100031.53;6213008;23;20120;-87
2023/12/27 12:28:06;;;;;;;0.70;0.32;;;;;;;9.40;74.68;99921.25;6171883;23;20032;-86
2023/12/27 16:58:51;;;;;;;27.77;13.32;;;;;;;8.34;100.00;100289.13;6130464;23;20040;-84
2023/12/27 17:01:25;;;;;;;4.72;2.22;;;;;;;8.44;100.00;100291.19;6152782;23;20466;-86
2023/12/27 17:03:54;;;;;;;8.88;2.10;;;;;;;8.48;100.00;100292.19;6151150;23;20360;-86
2023/12/27 18:24:10;;;;;;;0.98;0.60;;;;;;;8.62;100.00;100326.97;5731096;23;9989948;-85
2023/12/27 18:26:42;;;;;;;1.80;0.85;;;;;;;8.67;100.00;100330.56;6161065;23;20013;-87
2023/12/27 18:29:14;;;;;;;6.15;0.80;;;;;;;8.70;100.00;100329.78;6162264;23;20026;-88
2023/12/27 19:25:40;;;;;;;1.52;1.08;;;;;;;9.37;100.00;100256.88;6199001;23;20029;-87
2023/12/27 19:28:11;;;;;;;3.17;1.23;;;;;;;9.37;100.00;100246.53;6214294;23;20071;-90
2023/12/27 19:43:58;;;;;;;2.83;0.70;;;;;;;9.47;100.00;100223.53;6189428;23;20389;-88
2023/12/27 19:46:27;;;;;;;2.75;0.85;;;;;;;9.46;100.00;100232.09;6218196;23;20020;-86
2023/12/27 19:48:56;;;;;;;1.45;0.80;;;;;;;9.47;100.00;100228.69;6213802;23;20071;-85
2023/12/27 19:51:29;;;;;;;1.50;0.80;;;;;;;9.47;100.00;100229.56;6214770;23;20035;-88
2023/12/27 19:53:58;;;;;;;1.95;1.00;;;;;;;9.49;100.00;100216.69;6214275;23;20021;-91
2023/12/27 19:56:30;;;;;;;;;;;;;;;9.56;100.00;100226.34;6215317;23;20039;-90
2023/12/27 19:59:11;;;;;;;2.95;1.05;;;;;;;9.60;100.00;100231.63;6216366;23;19966;-87
2023/12/27 20:01:40;;;;;;;1.45;0.82;;;;;;;9.58;100.00;100219.50;6215584;23;20119;-88
2023/12/27 20:04:10;;;;;;;3.00;1.08;;;;;;;9.60;100.00;100234.22;6214291;23;20040;-88
2023/12/27 20:06:51;;;;;;;4.65;1.10;;;;;;;9.58;100.00;100242.75;6215820;23;20020;-88
2023/12/27 20:09:20;;;;;;;3.70;1.00;;;;;;;9.60;100.00;100251.41;6215557;23;20392;-88
2023/12/27 20:11:49;;;;;;;3.45;1.10;;;;;;;9.59;100.00;100240.19;6215675;23;20019;-88
2023/12/27 20:14:23;;;;;;;3.33;1.25;;;;;;;9.57;100.00;100262.53;6215687;23;20054;-87
2023/12/27 20:16:53;;;;;;;2.22;1.27;;;;;;;9.64;100.00;100271.31;6214758;23;20020;-89
2023/12/27 20:19:22;;;;;;;3.35;2.08;;;;;;;9.63;100.00;100252.34;6214451;23;20075;-88
2023/12/27 20:21:52;;;;;;;2.35;1.10;;;;;;;9.60;100.00;100251.41;6217914;23;20020;-88
2023/12/27 20:34:43;;;;;;;1.75;1.17;;;;;;;9.51;100.00;100228.81;6215904;23;20021;-87
2023/12/27 20:37:12;;;;;;;3.15;1.35;;;;;;;9.54;100.00;100238.34;6213323;23;20020;-86
2023/12/27 20:39:47;;;;;;;2.30;1.25;;;;;;;9.53;100.00;100224.56;6214233;23;20016;-86
2023/12/27 20:42:16;;;;;;;2.47;1.23;;;;;;;9.61;100.00;100214.41;6214383;23;20074;-86
2023/12/27 20:44:45;;;;;;;0.95;0.80;;;;;;;9.58;100.00;100220.38;6214283;23;20020;-88
2023/12/27 20:47:14;;;;;;;2.75;1.60;;;;;;;9.65;100.00;100221.41;6214447;23;20016;-87
2023/12/27 20:49:56;;;;;;;;;;;;;;;;;;;;;
2023/12/27 20:52:25;;;;;;;3.90;1.20;;;;;;;9.78;100.00;100231.22;6187827;23;20099;-86
2023/12/27 20:54:54;;;;;;;3.85;1.52;;;;;;;9.83;100.00;100239.94;6214222;23;20021;-86
2023/12/27 20:57:26;;;;;;;2.80;1.67;;;;;;;9.85;100.00;100245.16;6213151;23;20025;-86
2023/12/27 20:59:57;;;;;;;5.20;1.67;;;;;;;9.92;100.00;100253.91;6217268;23;20070;-85
2023/12/27 21:02:26;;;;;;;1.60;0.88;;;;;;;9.97;100.00;100247.16;6213605;23;20092;-85
2023/12/27 21:05:00;;;;;;;2.15;1.10;;;;;;;9.97;100.00;100248.03;6214479;23;20055;-85
2023/12/27 21:07:33;;;;;;;2.47;1.35;;;;;;;10.00;100.00;100252.38;6212595;23;20021;-85
2023/12/27 21:10:05;;;;;;;1.77;1.33;;;;;;;10.00;100.00;100255.84;6210859;23;20017;-88
2023/12/27 21:12:37;;;;;;;4.10;1.60;;;;;;;10.00;100.00;100294.59;6211889;23;20092;-87
2023/12/27 21:15:17;;;;;;;;;;;;;;;;;;;;;
2023/12/27 21:17:50;;;;;;;2.50;1.45;;;;;;;9.99;100.00;100297.16;6212700;23;20027;-86
2023/12/27 21:20:21;;;;;;;1.88;1.10;;;;;;;9.95;100.00;100303.09;6214261;23;20021;-86
2023/12/27 21:23:00;;;;;;;2.22;1.00;;;;;;;9.96;100.00;100287.59;6214446;23;20023;-88
2023/12/27 21:25:30;;;;;;;1.80;0.73;;;;;;;9.98;100.00;100283.34;6211226;23;20021;-86
2023/12/27 21:28:03;;;;;;;2.55;1.20;;;;;;;9.95;100.00;100269.50;6211506;23;20103;-88
2023/12/27 21:30:36;;;;;;;;;;;;;;;10.00;100.00;100275.66;6211428;23;20024;-88
2023/12/27 21:33:05;;;;;;;3.33;1.38;;;;;;;10.03;100.00;100267.94;6212447;23;19922;-87
2023/12/27 21:35:38;;;;;;;1.98;0.90;;;;;;;10.05;100.00;100266.28;6213425;23;20031;-88
2023/12/27 21:38:20;;;;;;;;;;;;;;;;;;;;;
2023/12/27 21:40:49;;;;;;;;;;;;;;;10.07;100.00;100254.28;6215700;23;20456;-88
2023/12/27 22:38:10;;;;;;;4.18;1.30;;;;;;;9.96;100.00;100385.81;6220849;23;20021;-91
2023/12/27 22:40:43;;;;;;;4.70;1.70;;;;;;;9.88;100.00;100381.31;6217729;23;20020;-89
2023/12/27 22:43:22;;;;;;;5.22;1.23;;;;;;;9.78;100.00;100385.34;6215176;23;20257;-87
2023/12/27 22:45:51;;;;;;;2.05;1.25;;;;;;;9.78;100.00;100394.00;6217231;23;20051;-87
2023/12/27 22:48:20;;;;;;;1.88;1.05;;;;;;;9.80;100.00;100392.31;6216026;23;20028;-87
2023/12/27 22:51:02;;;;;;;5.30;1.73;;;;;;;9.89;100.00;100399.41;6221046;23;20099;-89
2023/12/27 22:53:38;;;;;;;5.60;1.85;;;;;;;9.95;100.00;100406.47;6216096;23;20016;-90
